Vidette, Georgia
Current Conditions -  °F | °C
As of 10:55 PM on Thursday 27 Nov 2014 (Local Time) from KOKZ Reporting Station
Clear Clear  
Wind Chill: 37°   Ceiling: Unl
Heat Index: 37°   Visibility: 10mi
Dew Point: 29°   Wind: 3mph
Humidity: 72%   Direction: 280°W
Pressure: 30.37"   Gusts: NA
Location:  33.028°N, 82.379°W
Report Text: KOKZ 280355Z AUTO 28003KT 10SM CLR 03/M02 A3037 RMK AO2 T00271018
Loading
Personal Weather Stations






























Interactive Weather Map New forecast layout! Learn more

10-Day Weather Forecast

Advertisements
Track Severe Weather on mobile